< < Back
Terminal Aerodrome Forecast


Current Version              Previous Versions:   1  2  3  4  5  6  7  8  9  

Terminal Aerodrome Forecast

571
FTUS44 KHUN 191507 AAA
TAFHSV
TAF AMD
KHSV 191507Z 1915/2012 04012KT P6SM SCT250
     FM200100 08005KT P6SM SKC=



Latest METAR

727
SAUS80 KWBC 201000
MTRHSV
METAR KHSV 200953Z AUTO 00000KT 10SM CLR 09/07 A3020 RMK AO2 SLP222
T00890067


USA.gov is the U.S. government's official web portal to all federal, state and local government web resources and services.